sensor_id;sensor_type;location;lat;lon;timestamp;P1;durP1;ratioP1;P2;durP2;ratioP2
19396;SDS011;9834;48.076;11.878;2023-11-18T00:02:19;4.27;;;3.27;;
19396;SDS011;9834;48.076;11.878;2023-11-18T00:04:49;5.93;;;4.03;;
19396;SDS011;9834;48.076;11.878;2023-11-18T00:07:17;5.40;;;3.53;;
19396;SDS011;9834;48.076;11.878;2023-11-18T00:09:48;6.33;;;3.70;;
19396;SDS011;9834;48.076;11.878;2023-11-18T00:12:15;4.33;;;3.50;;
19396;SDS011;9834;48.076;11.878;2023-11-18T00:14:44;7.13;;;3.63;;
19396;SDS011;9834;48.076;11.878;2023-11-18T00:17:12;5.30;;;3.83;;
19396;SDS011;9834;48.076;11.878;2023-11-18T00:19:41;5.43;;;3.50;;
19396;SDS011;9834;48.076;11.878;2023-11-18T00:22:10;7.23;;;3.67;;
19396;SDS011;9834;48.076;11.878;2023-11-18T00:24:41;6.80;;;4.27;;
19396;SDS011;9834;48.076;11.878;2023-11-18T00:27:10;5.27;;;3.53;;
19396;SDS011;9834;48.076;11.878;2023-11-18T00:29:40;6.50;;;4.03;;
19396;SDS011;9834;48.076;11.878;2023-11-18T00:32:10;6.30;;;3.70;;
19396;SDS011;9834;48.076;11.878;2023-11-18T00:34:37;4.93;;;4.27;;
19396;SDS011;9834;48.076;11.878;2023-11-18T00:37:12;4.77;;;3.77;;
19396;SDS011;9834;48.076;11.878;2023-11-18T00:39:39;8.20;;;4.30;;
19396;SDS011;9834;48.076;11.878;2023-11-18T00:42:07;5.80;;;4.27;;
19396;SDS011;9834;48.076;11.878;2023-11-18T00:44:38;3.73;;;2.90;;
19396;SDS011;9834;48.076;11.878;2023-11-18T00:47:10;6.70;;;4.00;;
19396;SDS011;9834;48.076;11.878;2023-11-18T00:49:38;7.43;;;4.83;;
19396;SDS011;9834;48.076;11.878;2023-11-18T00:52:05;8.20;;;4.23;;
19396;SDS011;9834;48.076;11.878;2023-11-18T00:54:32;6.73;;;4.27;;
19396;SDS011;9834;48.076;11.878;2023-11-18T00:57:01;5.67;;;4.20;;
19396;SDS011;9834;48.076;11.878;2023-11-18T00:59:29;8.20;;;4.57;;
19396;SDS011;9834;48.076;11.878;2023-11-18T01:01:56;6.63;;;4.30;;
19396;SDS011;9834;48.076;11.878;2023-11-18T01:04:38;6.43;;;4.67;;
19396;SDS011;9834;48.076;11.878;2023-11-18T01:07:11;6.20;;;3.80;;
19396;SDS011;9834;48.076;11.878;2023-11-18T01:09:38;6.70;;;4.00;;
19396;SDS011;9834;48.076;11.878;2023-11-18T01:12:06;6.10;;;3.90;;
19396;SDS011;9834;48.076;11.878;2023-11-18T01:14:35;6.93;;;3.80;;
19396;SDS011;9834;48.076;11.878;2023-11-18T01:17:04;5.03;;;3.90;;
19396;SDS011;9834;48.076;11.878;2023-11-18T01:19:38;6.60;;;4.50;;
19396;SDS011;9834;48.076;11.878;2023-11-18T01:22:07;6.90;;;4.17;;
19396;SDS011;9834;48.076;11.878;2023-11-18T01:24:37;7.73;;;4.20;;
19396;SDS011;9834;48.076;11.878;2023-11-18T01:27:07;5.27;;;3.53;;
19396;SDS011;9834;48.076;11.878;2023-11-18T01:29:36;6.70;;;4.00;;
19396;SDS011;9834;48.076;11.878;2023-11-18T01:32:09;6.60;;;4.47;;
19396;SDS011;9834;48.076;11.878;2023-11-18T01:34:40;5.00;;;3.23;;
19396;SDS011;9834;48.076;11.878;2023-11-18T01:37:15;5.40;;;3.57;;
19396;SDS011;9834;48.076;11.878;2023-11-18T01:39:48;4.97;;;3.97;;
19396;SDS011;9834;48.076;11.878;2023-11-18T01:42:15;4.77;;;3.67;;
19396;SDS011;9834;48.076;11.878;2023-11-18T01:44:43;5.80;;;3.50;;
19396;SDS011;9834;48.076;11.878;2023-11-18T01:47:10;3.90;;;3.17;;
19396;SDS011;9834;48.076;11.878;2023-11-18T01:49:50;5.07;;;4.03;;
19396;SDS011;9834;48.076;11.878;2023-11-18T01:52:20;5.47;;;4.10;;
19396;SDS011;9834;48.076;11.878;2023-11-18T01:54:51;6.30;;;3.43;;
19396;SDS011;9834;48.076;11.878;2023-11-18T01:57:20;4.97;;;3.43;;
19396;SDS011;9834;48.076;11.878;2023-11-18T01:59:47;3.67;;;2.70;;
19396;SDS011;9834;48.076;11.878;2023-11-18T02:02:15;4.90;;;2.67;;
19396;SDS011;9834;48.076;11.878;2023-11-18T02:04:43;4.50;;;3.33;;
19396;SDS011;9834;48.076;11.878;2023-11-18T02:07:12;5.23;;;3.07;;
19396;SDS011;9834;48.076;11.878;2023-11-18T02:09:41;5.57;;;3.43;;
19396;SDS011;9834;48.076;11.878;2023-11-18T02:12:16;3.77;;;3.10;;
19396;SDS011;9834;48.076;11.878;2023-11-18T02:15:05;3.23;;;2.40;;
19396;SDS011;9834;48.076;11.878;2023-11-18T02:17:38;2.87;;;2.60;;
19396;SDS011;9834;48.076;11.878;2023-11-18T02:20:10;3.57;;;2.80;;
19396;SDS011;9834;48.076;11.878;2023-11-18T02:22:42;4.10;;;2.73;;
19396;SDS011;9834;48.076;11.878;2023-11-18T02:25:16;3.83;;;2.27;;
19396;SDS011;9834;48.076;11.878;2023-11-18T02:27:53;5.13;;;2.50;;
19396;SDS011;9834;48.076;11.878;2023-11-18T02:30:24;6.33;;;2.50;;
19396;SDS011;9834;48.076;11.878;2023-11-18T02:32:57;3.43;;;2.50;;
19396;SDS011;9834;48.076;11.878;2023-11-18T02:35:31;2.87;;;1.80;;
19396;SDS011;9834;48.076;11.878;2023-11-18T02:38:02;2.63;;;2.27;;
19396;SDS011;9834;48.076;11.878;2023-11-18T02:40:33;2.43;;;1.83;;
19396;SDS011;9834;48.076;11.878;2023-11-18T02:43:08;3.03;;;1.87;;
19396;SDS011;9834;48.076;11.878;2023-11-18T02:45:36;2.67;;;2.13;;
19396;SDS011;9834;48.076;11.878;2023-11-18T02:48:05;2.83;;;2.30;;
19396;SDS011;9834;48.076;11.878;2023-11-18T02:50:36;3.23;;;2.33;;
19396;SDS011;9834;48.076;11.878;2023-11-18T02:53:06;5.20;;;2.10;;
19396;SDS011;9834;48.076;11.878;2023-11-18T02:55:34;2.77;;;2.47;;
19396;SDS011;9834;48.076;11.878;2023-11-18T02:58:02;3.60;;;1.70;;
19396;SDS011;9834;48.076;11.878;2023-11-18T03:00:34;2.10;;;1.90;;
19396;SDS011;9834;48.076;11.878;2023-11-18T03:03:03;2.30;;;1.77;;
19396;SDS011;9834;48.076;11.878;2023-11-18T03:05:31;2.60;;;1.93;;
19396;SDS011;9834;48.076;11.878;2023-11-18T03:07:58;1.93;;;1.73;;
19396;SDS011;9834;48.076;11.878;2023-11-18T03:10:35;3.10;;;2.33;;
19396;SDS011;9834;48.076;11.878;2023-11-18T03:13:02;2.37;;;1.97;;
19396;SDS011;9834;48.076;11.878;2023-11-18T03:15:31;1.27;;;1.17;;
19396;SDS011;9834;48.076;11.878;2023-11-18T03:18:00;1.93;;;1.30;;
19396;SDS011;9834;48.076;11.878;2023-11-18T03:20:28;1.80;;;1.37;;
19396;SDS011;9834;48.076;11.878;2023-11-18T03:22:59;1.90;;;1.63;;
19396;SDS011;9834;48.076;11.878;2023-11-18T03:25:30;2.30;;;1.77;;
19396;SDS011;9834;48.076;11.878;2023-11-18T03:27:57;1.63;;;1.40;;
19396;SDS011;9834;48.076;11.878;2023-11-18T03:30:25;2.40;;;1.77;;
19396;SDS011;9834;48.076;11.878;2023-11-18T03:33:03;1.67;;;1.40;;
19396;SDS011;9834;48.076;11.878;2023-11-18T03:35:33;2.20;;;1.83;;
19396;SDS011;9834;48.076;11.878;2023-11-18T03:38:08;2.07;;;1.87;;
19396;SDS011;9834;48.076;11.878;2023-11-18T03:40:36;1.77;;;1.67;;
19396;SDS011;9834;48.076;11.878;2023-11-18T03:43:06;2.17;;;1.87;;
19396;SDS011;9834;48.076;11.878;2023-11-18T03:45:38;5.37;;;1.80;;
19396;SDS011;9834;48.076;11.878;2023-11-18T03:48:11;1.87;;;1.77;;
19396;SDS011;9834;48.076;11.878;2023-11-18T03:50:39;2.90;;;1.70;;
19396;SDS011;9834;48.076;11.878;2023-11-18T03:53:10;2.27;;;1.63;;
19396;SDS011;9834;48.076;11.878;2023-11-18T03:55:38;3.27;;;2.20;;
19396;SDS011;9834;48.076;11.878;2023-11-18T03:58:08;1.83;;;1.73;;
19396;SDS011;9834;48.076;11.878;2023-11-18T04:00:36;2.27;;;1.83;;
19396;SDS011;9834;48.076;11.878;2023-11-18T04:03:09;1.90;;;1.73;;
19396;SDS011;9834;48.076;11.878;2023-11-18T04:08:54;2.10;;;1.60;;
19396;SDS011;9834;48.076;11.878;2023-11-18T04:11:22;2.57;;;1.67;;
19396;SDS011;9834;48.076;11.878;2023-11-18T04:13:53;2.33;;;1.60;;
19396;SDS011;9834;48.076;11.878;2023-11-18T04:16:20;2.40;;;1.70;;
19396;SDS011;9834;48.076;11.878;2023-11-18T04:18:58;2.07;;;1.70;;
19396;SDS011;9834;48.076;11.878;2023-11-18T04:21:28;2.77;;;1.23;;
19396;SDS011;9834;48.076;11.878;2023-11-18T04:24:06;2.00;;;1.67;;
19396;SDS011;9834;48.076;11.878;2023-11-18T04:26:34;2.43;;;2.20;;
19396;SDS011;9834;48.076;11.878;2023-11-18T04:29:02;1.43;;;1.30;;
19396;SDS011;9834;48.076;11.878;2023-11-18T04:31:31;2.33;;;1.87;;
19396;SDS011;9834;48.076;11.878;2023-11-18T04:34:03;1.43;;;1.30;;
19396;SDS011;9834;48.076;11.878;2023-11-18T04:36:34;2.50;;;1.73;;
19396;SDS011;9834;48.076;11.878;2023-11-18T04:39:01;2.10;;;1.90;;
19396;SDS011;9834;48.076;11.878;2023-11-18T04:41:31;2.60;;;1.60;;
19396;SDS011;9834;48.076;11.878;2023-11-18T04:44:02;2.20;;;1.87;;
19396;SDS011;9834;48.076;11.878;2023-11-18T04:46:30;4.17;;;2.17;;
19396;SDS011;9834;48.076;11.878;2023-11-18T04:49:02;3.90;;;2.13;;
19396;SDS011;9834;48.076;11.878;2023-11-18T04:51:32;1.70;;;1.33;;
19396;SDS011;9834;48.076;11.878;2023-11-18T04:54:00;1.93;;;1.77;;
19396;SDS011;9834;48.076;11.878;2023-11-18T04:56:29;2.67;;;2.30;;
19396;SDS011;9834;48.076;11.878;2023-11-18T04:59:07;2.33;;;1.83;;
19396;SDS011;9834;48.076;11.878;2023-11-18T05:01:35;2.33;;;2.13;;
19396;SDS011;9834;48.076;11.878;2023-11-18T05:04:04;4.20;;;2.13;;
19396;SDS011;9834;48.076;11.878;2023-11-18T05:06:36;4.10;;;2.60;;
19396;SDS011;9834;48.076;11.878;2023-11-18T05:09:03;2.77;;;2.33;;
19396;SDS011;9834;48.076;11.878;2023-11-18T05:11:37;3.03;;;2.17;;
19396;SDS011;9834;48.076;11.878;2023-11-18T05:14:10;2.97;;;2.60;;
19396;SDS011;9834;48.076;11.878;2023-11-18T05:16:38;2.70;;;2.10;;
19396;SDS011;9834;48.076;11.878;2023-11-18T05:19:09;3.40;;;2.33;;
19396;SDS011;9834;48.076;11.878;2023-11-18T05:21:36;4.43;;;2.13;;
19396;SDS011;9834;48.076;11.878;2023-11-18T05:24:04;3.43;;;2.53;;
19396;SDS011;9834;48.076;11.878;2023-11-18T05:26:32;5.53;;;3.17;;
19396;SDS011;9834;48.076;11.878;2023-11-18T05:29:02;4.57;;;2.57;;
19396;SDS011;9834;48.076;11.878;2023-11-18T05:31:31;3.10;;;2.30;;
19396;SDS011;9834;48.076;11.878;2023-11-18T05:34:02;3.87;;;2.20;;
19396;SDS011;9834;48.076;11.878;2023-11-18T05:36:31;4.03;;;2.27;;
19396;SDS011;9834;48.076;11.878;2023-11-18T05:39:03;3.33;;;2.87;;
19396;SDS011;9834;48.076;11.878;2023-11-18T05:41:33;2.53;;;2.10;;
19396;SDS011;9834;48.076;11.878;2023-11-18T05:44:00;2.27;;;2.07;;
19396;SDS011;9834;48.076;11.878;2023-11-18T05:46:37;2.93;;;2.40;;
19396;SDS011;9834;48.076;11.878;2023-11-18T05:49:05;4.03;;;2.60;;
19396;SDS011;9834;48.076;11.878;2023-11-18T05:51:35;3.27;;;2.47;;
19396;SDS011;9834;48.076;11.878;2023-11-18T05:54:05;2.27;;;2.00;;
19396;SDS011;9834;48.076;11.878;2023-11-18T05:56:32;2.53;;;2.07;;
19396;SDS011;9834;48.076;11.878;2023-11-18T05:59:05;2.40;;;2.20;;
19396;SDS011;9834;48.076;11.878;2023-11-18T06:01:33;2.97;;;2.33;;
19396;SDS011;9834;48.076;11.878;2023-11-18T06:04:02;3.50;;;2.57;;
19396;SDS011;9834;48.076;11.878;2023-11-18T06:06:29;4.60;;;2.33;;
19396;SDS011;9834;48.076;11.878;2023-11-18T06:09:01;3.13;;;2.07;;
19396;SDS011;9834;48.076;11.878;2023-11-18T06:11:33;4.10;;;2.50;;
19396;SDS011;9834;48.076;11.878;2023-11-18T06:14:09;4.83;;;2.47;;
19396;SDS011;9834;48.076;11.878;2023-11-18T06:16:37;3.97;;;2.47;;
19396;SDS011;9834;48.076;11.878;2023-11-18T06:19:08;4.27;;;2.67;;
19396;SDS011;9834;48.076;11.878;2023-11-18T06:21:36;3.77;;;2.57;;
19396;SDS011;9834;48.076;11.878;2023-11-18T06:24:08;3.20;;;2.10;;
19396;SDS011;9834;48.076;11.878;2023-11-18T06:26:39;4.50;;;2.67;;
19396;SDS011;9834;48.076;11.878;2023-11-18T06:29:12;5.50;;;3.13;;
19396;SDS011;9834;48.076;11.878;2023-11-18T06:31:40;2.77;;;2.20;;
19396;SDS011;9834;48.076;11.878;2023-11-18T06:34:09;3.57;;;2.80;;
19396;SDS011;9834;48.076;11.878;2023-11-18T06:36:43;2.97;;;1.90;;
19396;SDS011;9834;48.076;11.878;2023-11-18T06:39:12;3.23;;;2.33;;
19396;SDS011;9834;48.076;11.878;2023-11-18T06:41:41;3.03;;;2.53;;
19396;SDS011;9834;48.076;11.878;2023-11-18T06:44:13;3.03;;;1.93;;
19396;SDS011;9834;48.076;11.878;2023-11-18T06:46:43;2.53;;;1.83;;
19396;SDS011;9834;48.076;11.878;2023-11-18T06:49:11;2.50;;;2.00;;
19396;SDS011;9834;48.076;11.878;2023-11-18T06:51:40;2.43;;;2.23;;
19396;SDS011;9834;48.076;11.878;2023-11-18T06:54:15;4.20;;;2.20;;
19396;SDS011;9834;48.076;11.878;2023-11-18T06:56:44;2.17;;;1.87;;
19396;SDS011;9834;48.076;11.878;2023-11-18T06:59:12;3.33;;;2.10;;
19396;SDS011;9834;48.076;11.878;2023-11-18T07:01:40;3.00;;;2.00;;
19396;SDS011;9834;48.076;11.878;2023-11-18T07:04:08;2.13;;;1.87;;
19396;SDS011;9834;48.076;11.878;2023-11-18T07:06:35;2.97;;;2.37;;
19396;SDS011;9834;48.076;11.878;2023-11-18T07:09:06;3.27;;;2.40;;
19396;SDS011;9834;48.076;11.878;2023-11-18T07:11:39;3.10;;;2.40;;
19396;SDS011;9834;48.076;11.878;2023-11-18T07:14:09;4.17;;;2.13;;
19396;SDS011;9834;48.076;11.878;2023-11-18T07:16:38;3.50;;;2.60;;
19396;SDS011;9834;48.076;11.878;2023-11-18T07:19:06;2.67;;;2.20;;
19396;SDS011;9834;48.076;11.878;2023-11-18T07:21:40;2.23;;;1.93;;
19396;SDS011;9834;48.076;11.878;2023-11-18T07:24:08;1.67;;;1.57;;
19396;SDS011;9834;48.076;11.878;2023-11-18T07:26:36;2.23;;;2.03;;
19396;SDS011;9834;48.076;11.878;2023-11-18T07:29:17;2.53;;;2.33;;
19396;SDS011;9834;48.076;11.878;2023-11-18T07:31:48;3.70;;;2.33;;
19396;SDS011;9834;48.076;11.878;2023-11-18T07:34:17;2.33;;;2.07;;
19396;SDS011;9834;48.076;11.878;2023-11-18T07:36:48;2.90;;;2.00;;
19396;SDS011;9834;48.076;11.878;2023-11-18T07:39:18;3.17;;;2.03;;
19396;SDS011;9834;48.076;11.878;2023-11-18T07:41:53;1.50;;;1.40;;
19396;SDS011;9834;48.076;11.878;2023-11-18T07:44:26;2.70;;;2.20;;
19396;SDS011;9834;48.076;11.878;2023-11-18T07:46:56;2.43;;;2.07;;
19396;SDS011;9834;48.076;11.878;2023-11-18T07:49:26;2.17;;;1.80;;
19396;SDS011;9834;48.076;11.878;2023-11-18T07:52:01;2.87;;;2.07;;
19396;SDS011;9834;48.076;11.878;2023-11-18T07:54:29;2.83;;;2.03;;
19396;SDS011;9834;48.076;11.878;2023-11-18T07:56:58;3.63;;;2.30;;
19396;SDS011;9834;48.076;11.878;2023-11-18T07:59:29;2.97;;;1.77;;
19396;SDS011;9834;48.076;11.878;2023-11-18T08:01:57;2.03;;;1.83;;
19396;SDS011;9834;48.076;11.878;2023-11-18T08:04:28;3.67;;;2.23;;
19396;SDS011;9834;48.076;11.878;2023-11-18T08:06:56;2.17;;;1.60;;
19396;SDS011;9834;48.076;11.878;2023-11-18T08:09:28;2.03;;;1.83;;
19396;SDS011;9834;48.076;11.878;2023-11-18T08:12:00;3.80;;;1.90;;
19396;SDS011;9834;48.076;11.878;2023-11-18T08:14:28;3.50;;;2.07;;
19396;SDS011;9834;48.076;11.878;2023-11-18T08:16:59;1.93;;;1.70;;
19396;SDS011;9834;48.076;11.878;2023-11-18T08:19:29;3.27;;;2.27;;
19396;SDS011;9834;48.076;11.878;2023-11-18T08:21:59;3.17;;;2.47;;
19396;SDS011;9834;48.076;11.878;2023-11-18T08:24:31;3.10;;;2.17;;
19396;SDS011;9834;48.076;11.878;2023-11-18T08:27:00;4.13;;;1.97;;
19396;SDS011;9834;48.076;11.878;2023-11-18T08:29:32;2.17;;;1.90;;
19396;SDS011;9834;48.076;11.878;2023-11-18T08:31:59;3.40;;;2.40;;
19396;SDS011;9834;48.076;11.878;2023-11-18T08:34:34;2.23;;;1.90;;
19396;SDS011;9834;48.076;11.878;2023-11-18T08:37:05;2.23;;;2.03;;
19396;SDS011;9834;48.076;11.878;2023-11-18T08:39:34;5.40;;;2.47;;
19396;SDS011;9834;48.076;11.878;2023-11-18T08:44:45;1.70;;;1.40;;
19396;SDS011;9834;48.076;11.878;2023-11-18T08:47:17;1.80;;;1.70;;
19396;SDS011;9834;48.076;11.878;2023-11-18T08:49:44;2.50;;;1.63;;
19396;SDS011;9834;48.076;11.878;2023-11-18T08:52:12;3.07;;;2.10;;
19396;SDS011;9834;48.076;11.878;2023-11-18T08:54:39;2.13;;;1.93;;
19396;SDS011;9834;48.076;11.878;2023-11-18T08:57:33;2.00;;;1.83;;
19396;SDS011;9834;48.076;11.878;2023-11-18T09:00:14;2.37;;;2.17;;
19396;SDS011;9834;48.076;11.878;2023-11-18T09:03:02;2.13;;;1.80;;
19396;SDS011;9834;48.076;11.878;2023-11-18T09:05:31;2.23;;;1.70;;
19396;SDS011;9834;48.076;11.878;2023-11-18T09:08:01;1.67;;;1.53;;
19396;SDS011;9834;48.076;11.878;2023-11-18T09:10:37;1.93;;;1.70;;
19396;SDS011;9834;48.076;11.878;2023-11-18T09:13:09;3.20;;;2.13;;
19396;SDS011;9834;48.076;11.878;2023-11-18T09:15:40;1.93;;;1.73;;
19396;SDS011;9834;48.076;11.878;2023-11-18T09:18:07;1.97;;;1.70;;
19396;SDS011;9834;48.076;11.878;2023-11-18T09:20:38;3.40;;;2.00;;
19396;SDS011;9834;48.076;11.878;2023-11-18T09:23:05;1.73;;;1.63;;
19396;SDS011;9834;48.076;11.878;2023-11-18T09:25:33;1.90;;;1.43;;
19396;SDS011;9834;48.076;11.878;2023-11-18T09:28:01;1.70;;;1.60;;
19396;SDS011;9834;48.076;11.878;2023-11-18T09:30:31;1.60;;;1.43;;
19396;SDS011;9834;48.076;11.878;2023-11-18T09:33:07;2.40;;;1.40;;
19396;SDS011;9834;48.076;11.878;2023-11-18T09:35:51;1.40;;;1.30;;
19396;SDS011;9834;48.076;11.878;2023-11-18T09:38:23;1.57;;;1.33;;
19396;SDS011;9834;48.076;11.878;2023-11-18T09:41:09;2.00;;;1.60;;
19396;SDS011;9834;48.076;11.878;2023-11-18T09:43:37;1.40;;;1.30;;
19396;SDS011;9834;48.076;11.878;2023-11-18T09:46:12;2.67;;;1.77;;
19396;SDS011;9834;48.076;11.878;2023-11-18T09:48:41;1.40;;;1.30;;
19396;SDS011;9834;48.076;11.878;2023-11-18T09:51:13;1.67;;;1.20;;
19396;SDS011;9834;48.076;11.878;2023-11-18T09:53:46;0.90;;;0.87;;
19396;SDS011;9834;48.076;11.878;2023-11-18T09:56:18;1.27;;;1.17;;
19396;SDS011;9834;48.076;11.878;2023-11-18T09:58:59;1.43;;;1.33;;
19396;SDS011;9834;48.076;11.878;2023-11-18T10:01:35;1.40;;;1.10;;
19396;SDS011;9834;48.076;11.878;2023-11-18T10:04:08;0.93;;;0.80;;
19396;SDS011;9834;48.076;11.878;2023-11-18T10:06:36;0.80;;;0.80;;
19396;SDS011;9834;48.076;11.878;2023-11-18T10:09:07;1.10;;;0.93;;
19396;SDS011;9834;48.076;11.878;2023-11-18T10:11:59;1.13;;;1.03;;
19396;SDS011;9834;48.076;11.878;2023-11-18T10:14:30;1.03;;;0.93;;
19396;SDS011;9834;48.076;11.878;2023-11-18T10:17:00;0.97;;;0.83;;
19396;SDS011;9834;48.076;11.878;2023-11-18T10:19:51;1.03;;;1.03;;
19396;SDS011;9834;48.076;11.878;2023-11-18T10:22:23;0.73;;;0.73;;
19396;SDS011;9834;48.076;11.878;2023-11-18T10:24:51;1.73;;;1.13;;
19396;SDS011;9834;48.076;11.878;2023-11-18T10:27:26;1.50;;;1.00;;
19396;SDS011;9834;48.076;11.878;2023-11-18T10:30:01;1.37;;;1.17;;
19396;SDS011;9834;48.076;11.878;2023-11-18T10:32:31;1.40;;;1.13;;
19396;SDS011;9834;48.076;11.878;2023-11-18T10:35:00;1.03;;;0.90;;
19396;SDS011;9834;48.076;11.878;2023-11-18T10:37:31;1.17;;;1.00;;
19396;SDS011;9834;48.076;11.878;2023-11-18T10:40:03;3.33;;;1.03;;
19396;SDS011;9834;48.076;11.878;2023-11-18T10:42:31;1.23;;;0.97;;
19396;SDS011;9834;48.076;11.878;2023-11-18T10:45:01;0.80;;;0.80;;
19396;SDS011;9834;48.076;11.878;2023-11-18T10:47:31;1.33;;;0.80;;
19396;SDS011;9834;48.076;11.878;2023-11-18T10:50:04;0.73;;;0.73;;
19396;SDS011;9834;48.076;11.878;2023-11-18T10:52:35;1.97;;;1.00;;
19396;SDS011;9834;48.076;11.878;2023-11-18T10:55:05;1.07;;;0.80;;
19396;SDS011;9834;48.076;11.878;2023-11-18T10:57:36;1.33;;;1.03;;
19396;SDS011;9834;48.076;11.878;2023-11-18T11:00:07;0.60;;;0.60;;
19396;SDS011;9834;48.076;11.878;2023-11-18T11:02:41;0.80;;;0.80;;
19396;SDS011;9834;48.076;11.878;2023-11-18T11:05:21;1.20;;;1.10;;
19396;SDS011;9834;48.076;11.878;2023-11-18T11:08:00;1.67;;;0.97;;
19396;SDS011;9834;48.076;11.878;2023-11-18T11:10:30;0.63;;;0.63;;
19396;SDS011;9834;48.076;11.878;2023-11-18T11:12:58;0.97;;;0.60;;
19396;SDS011;9834;48.076;11.878;2023-11-18T11:15:32;1.90;;;0.70;;
19396;SDS011;9834;48.076;11.878;2023-11-18T11:18:07;1.20;;;0.70;;
19396;SDS011;9834;48.076;11.878;2023-11-18T11:20:47;2.30;;;0.60;;
19396;SDS011;9834;48.076;11.878;2023-11-18T11:23:21;0.80;;;0.63;;
19396;SDS011;9834;48.076;11.878;2023-11-18T11:26:00;0.57;;;0.57;;
19396;SDS011;9834;48.076;11.878;2023-11-18T11:28:37;0.87;;;0.70;;
19396;SDS011;9834;48.076;11.878;2023-11-18T11:31:11;0.60;;;0.50;;
19396;SDS011;9834;48.076;11.878;2023-11-18T11:33:54;1.17;;;0.67;;
19396;SDS011;9834;48.076;11.878;2023-11-18T11:36:29;0.43;;;0.43;;
19396;SDS011;9834;48.076;11.878;2023-11-18T11:39:03;0.47;;;0.47;;
19396;SDS011;9834;48.076;11.878;2023-11-18T11:41:35;0.50;;;0.40;;
19396;SDS011;9834;48.076;11.878;2023-11-18T11:44:04;0.30;;;0.30;;
19396;SDS011;9834;48.076;11.878;2023-11-18T11:46:40;0.30;;;0.30;;
19396;SDS011;9834;48.076;11.878;2023-11-18T11:49:10;0.77;;;0.63;;
19396;SDS011;9834;48.076;11.878;2023-11-18T11:51:46;0.30;;;0.30;;
19396;SDS011;9834;48.076;11.878;2023-11-18T11:54:20;0.50;;;0.50;;
19396;SDS011;9834;48.076;11.878;2023-11-18T11:56:55;0.33;;;0.33;;
19396;SDS011;9834;48.076;11.878;2023-11-18T12:02:40;0.30;;;0.30;;
19396;SDS011;9834;48.076;11.878;2023-11-18T12:05:17;0.30;;;0.30;;
19396;SDS011;9834;48.076;11.878;2023-11-18T12:07:55;0.33;;;0.33;;
19396;SDS011;9834;48.076;11.878;2023-11-18T12:10:26;0.37;;;0.37;;
19396;SDS011;9834;48.076;11.878;2023-11-18T12:13:09;0.70;;;0.50;;
19396;SDS011;9834;48.076;11.878;2023-11-18T12:15:47;0.20;;;0.20;;
19396;SDS011;9834;48.076;11.878;2023-11-18T12:18:23;0.50;;;0.50;;
19396;SDS011;9834;48.076;11.878;2023-11-18T12:20:55;0.97;;;0.47;;
19396;SDS011;9834;48.076;11.878;2023-11-18T12:23:22;0.67;;;0.53;;
19396;SDS011;9834;48.076;11.878;2023-11-18T12:25:54;0.40;;;0.40;;
19396;SDS011;9834;48.076;11.878;2023-11-18T12:28:24;0.50;;;0.47;;
19396;SDS011;9834;48.076;11.878;2023-11-18T12:31:02;0.93;;;0.50;;
19396;SDS011;9834;48.076;11.878;2023-11-18T12:33:59;0.57;;;0.50;;
19396;SDS011;9834;48.076;11.878;2023-11-18T12:42:59;0.97;;;0.40;;
19396;SDS011;9834;48.076;11.878;2023-11-18T12:45:44;0.30;;;0.30;;
19396;SDS011;9834;48.076;11.878;2023-11-18T12:48:50;0.50;;;0.50;;
19396;SDS011;9834;48.076;11.878;2023-11-18T12:51:25;0.37;;;0.37;;
19396;SDS011;9834;48.076;11.878;2023-11-18T12:54:00;2.30;;;0.50;;
19396;SDS011;9834;48.076;11.878;2023-11-18T12:56:35;0.47;;;0.47;;
19396;SDS011;9834;48.076;11.878;2023-11-18T12:59:04;0.77;;;0.67;;
19396;SDS011;9834;48.076;11.878;2023-11-18T13:01:39;0.43;;;0.40;;
19396;SDS011;9834;48.076;11.878;2023-11-18T13:04:07;0.30;;;0.30;;
19396;SDS011;9834;48.076;11.878;2023-11-18T13:06:35;1.53;;;0.77;;
19396;SDS011;9834;48.076;11.878;2023-11-18T13:09:04;0.60;;;0.60;;
19396;SDS011;9834;48.076;11.878;2023-11-18T13:11:37;1.47;;;0.60;;
19396;SDS011;9834;48.076;11.878;2023-11-18T13:14:07;0.73;;;0.47;;
19396;SDS011;9834;48.076;11.878;2023-11-18T13:16:37;0.37;;;0.37;;
19396;SDS011;9834;48.076;11.878;2023-11-18T13:19:07;0.40;;;0.33;;
19396;SDS011;9834;48.076;11.878;2023-11-18T13:21:35;0.27;;;0.27;;
19396;SDS011;9834;48.076;11.878;2023-11-18T13:24:05;0.73;;;0.47;;
19396;SDS011;9834;48.076;11.878;2023-11-18T13:26:37;1.13;;;0.43;;
19396;SDS011;9834;48.076;11.878;2023-11-18T13:29:07;0.40;;;0.40;;
19396;SDS011;9834;48.076;11.878;2023-11-18T13:31:35;0.40;;;0.40;;
19396;SDS011;9834;48.076;11.878;2023-11-18T13:34:04;0.50;;;0.50;;
19396;SDS011;9834;48.076;11.878;2023-11-18T13:36:32;0.60;;;0.40;;
19396;SDS011;9834;48.076;11.878;2023-11-18T13:39:02;0.47;;;0.27;;
19396;SDS011;9834;48.076;11.878;2023-11-18T13:41:34;0.30;;;0.20;;
19396;SDS011;9834;48.076;11.878;2023-11-18T13:44:07;0.40;;;0.40;;
19396;SDS011;9834;48.076;11.878;2023-11-18T13:46:37;1.20;;;0.40;;
19396;SDS011;9834;48.076;11.878;2023-11-18T13:49:06;1.03;;;0.70;;
19396;SDS011;9834;48.076;11.878;2023-11-18T13:51:46;0.87;;;0.50;;
19396;SDS011;9834;48.076;11.878;2023-11-18T13:54:18;0.87;;;0.40;;
19396;SDS011;9834;48.076;11.878;2023-11-18T13:56:48;0.30;;;0.30;;
19396;SDS011;9834;48.076;11.878;2023-11-18T13:59:17;1.20;;;0.70;;
19396;SDS011;9834;48.076;11.878;2023-11-18T14:01:47;0.40;;;0.40;;
19396;SDS011;9834;48.076;11.878;2023-11-18T14:04:15;1.50;;;0.70;;
19396;SDS011;9834;48.076;11.878;2023-11-18T14:06:53;0.40;;;0.40;;
19396;SDS011;9834;48.076;11.878;2023-11-18T14:09:25;0.20;;;0.20;;
19396;SDS011;9834;48.076;11.878;2023-11-18T14:11:55;0.30;;;0.30;;
19396;SDS011;9834;48.076;11.878;2023-11-18T14:14:27;0.60;;;0.50;;
19396;SDS011;9834;48.076;11.878;2023-11-18T14:16:55;0.37;;;0.37;;
19396;SDS011;9834;48.076;11.878;2023-11-18T14:19:24;1.20;;;0.40;;
19396;SDS011;9834;48.076;11.878;2023-11-18T14:21:51;1.83;;;0.60;;
19396;SDS011;9834;48.076;11.878;2023-11-18T14:24:22;0.90;;;0.70;;
19396;SDS011;9834;48.076;11.878;2023-11-18T14:27:02;0.73;;;0.70;;
19396;SDS011;9834;48.076;11.878;2023-11-18T14:29:30;0.70;;;0.53;;
19396;SDS011;9834;48.076;11.878;2023-11-18T14:31:57;4.03;;;0.60;;
19396;SDS011;9834;48.076;11.878;2023-11-18T14:34:26;1.03;;;0.60;;
19396;SDS011;9834;48.076;11.878;2023-11-18T14:36:58;0.30;;;0.30;;
19396;SDS011;9834;48.076;11.878;2023-11-18T14:39:27;0.43;;;0.43;;
19396;SDS011;9834;48.076;11.878;2023-11-18T14:41:57;0.30;;;0.30;;
19396;SDS011;9834;48.076;11.878;2023-11-18T14:44:31;0.57;;;0.57;;
19396;SDS011;9834;48.076;11.878;2023-11-18T14:46:59;0.57;;;0.57;;
19396;SDS011;9834;48.076;11.878;2023-11-18T14:49:38;0.50;;;0.33;;
19396;SDS011;9834;48.076;11.878;2023-11-18T14:52:15;0.40;;;0.40;;
19396;SDS011;9834;48.076;11.878;2023-11-18T14:54:46;0.50;;;0.50;;
19396;SDS011;9834;48.076;11.878;2023-11-18T14:57:13;0.20;;;0.20;;
19396;SDS011;9834;48.076;11.878;2023-11-18T14:59:41;0.30;;;0.30;;
19396;SDS011;9834;48.076;11.878;2023-11-18T15:02:08;0.30;;;0.30;;
19396;SDS011;9834;48.076;11.878;2023-11-18T15:04:45;0.30;;;0.30;;
19396;SDS011;9834;48.076;11.878;2023-11-18T15:07:15;0.40;;;0.27;;
19396;SDS011;9834;48.076;11.878;2023-11-18T15:09:47;0.47;;;0.37;;
19396;SDS011;9834;48.076;11.878;2023-11-18T15:12:19;0.50;;;0.50;;
19396;SDS011;9834;48.076;11.878;2023-11-18T15:14:50;0.47;;;0.47;;
19396;SDS011;9834;48.076;11.878;2023-11-18T15:17:18;0.67;;;0.53;;
19396;SDS011;9834;48.076;11.878;2023-11-18T15:19:45;0.50;;;0.50;;
19396;SDS011;9834;48.076;11.878;2023-11-18T15:22:12;1.03;;;0.70;;
19396;SDS011;9834;48.076;11.878;2023-11-18T15:24:40;1.80;;;0.97;;
19396;SDS011;9834;48.076;11.878;2023-11-18T15:27:12;2.40;;;1.40;;
19396;SDS011;9834;48.076;11.878;2023-11-18T15:29:40;2.30;;;1.20;;